sensor_id;sensor_type;location;lat;lon;timestamp;P1;durP1;ratioP1;P2;durP2;ratioP2
26718;SDS011;14326;50.794;6.060;2023-07-22T00:03:15;16.35;;;6.20;;
26718;SDS011;14326;50.794;6.060;2023-07-22T00:06:19;16.63;;;6.17;;
26718;SDS011;14326;50.794;6.060;2023-07-22T00:09:05;16.60;;;6.40;;
26718;SDS011;14326;50.794;6.060;2023-07-22T00:12:08;16.92;;;6.45;;
26718;SDS011;14326;50.794;6.060;2023-07-22T00:17:48;16.88;;;6.70;;
26718;SDS011;14326;50.794;6.060;2023-07-22T00:23:31;16.63;;;6.40;;
26718;SDS011;14326;50.794;6.060;2023-07-22T00:26:19;16.67;;;6.00;;
26718;SDS011;14326;50.794;6.060;2023-07-22T00:29:22;17.02;;;6.22;;
26718;SDS011;14326;50.794;6.060;2023-07-22T00:32:21;16.23;;;6.57;;
26718;SDS011;14326;50.794;6.060;2023-07-22T00:35:04;16.27;;;6.67;;
26718;SDS011;14326;50.794;6.060;2023-07-22T00:37:52;17.08;;;5.88;;
26718;SDS011;14326;50.794;6.060;2023-07-22T00:40:52;18.30;;;6.43;;
26718;SDS011;14326;50.794;6.060;2023-07-22T00:43:46;18.70;;;6.65;;
26718;SDS011;14326;50.794;6.060;2023-07-22T00:49:26;19.08;;;6.93;;
26718;SDS011;14326;50.794;6.060;2023-07-22T00:52:25;16.63;;;6.25;;
26718;SDS011;14326;50.794;6.060;2023-07-22T00:55:12;16.10;;;6.57;;
26718;SDS011;14326;50.794;6.060;2023-07-22T01:00:49;16.38;;;6.28;;
26718;SDS011;14326;50.794;6.060;2023-07-22T01:03:48;20.08;;;6.85;;
26718;SDS011;14326;50.794;6.060;2023-07-22T01:09:37;17.30;;;6.47;;
26718;SDS011;14326;50.794;6.060;2023-07-22T01:12:26;18.17;;;6.65;;
26718;SDS011;14326;50.794;6.060;2023-07-22T01:14:57;16.55;;;6.30;;
26718;SDS011;14326;50.794;6.060;2023-07-22T01:17:30;19.63;;;7.03;;
26718;SDS011;14326;50.794;6.060;2023-07-22T01:20:24;17.25;;;6.65;;
26718;SDS011;14326;50.794;6.060;2023-07-22T01:23:14;18.33;;;7.05;;
26718;SDS011;14326;50.794;6.060;2023-07-22T01:26:00;17.77;;;7.28;;
26718;SDS011;14326;50.794;6.060;2023-07-22T01:28:48;17.25;;;6.95;;
26718;SDS011;14326;50.794;6.060;2023-07-22T01:31:37;16.95;;;6.45;;
26718;SDS011;14326;50.794;6.060;2023-07-22T01:34:36;17.77;;;7.07;;
26718;SDS011;14326;50.794;6.060;2023-07-22T01:43:12;17.58;;;7.00;;
26718;SDS011;14326;50.794;6.060;2023-07-22T01:46:14;18.75;;;7.38;;
26718;SDS011;14326;50.794;6.060;2023-07-22T01:48:52;18.08;;;7.55;;
26718;SDS011;14326;50.794;6.060;2023-07-22T01:51:39;18.40;;;7.32;;
26718;SDS011;14326;50.794;6.060;2023-07-22T01:54:34;19.80;;;7.57;;
26718;SDS011;14326;50.794;6.060;2023-07-22T01:57:39;18.00;;;7.18;;
26718;SDS011;14326;50.794;6.060;2023-07-22T02:00:31;19.83;;;8.02;;
26718;SDS011;14326;50.794;6.060;2023-07-22T02:03:02;19.08;;;7.82;;
26718;SDS011;14326;50.794;6.060;2023-07-22T02:05:29;18.33;;;7.30;;
26718;SDS011;14326;50.794;6.060;2023-07-22T02:08:03;18.88;;;7.80;;
26718;SDS011;14326;50.794;6.060;2023-07-22T02:11:01;19.23;;;7.50;;
26718;SDS011;14326;50.794;6.060;2023-07-22T02:13:53;19.20;;;8.02;;
26718;SDS011;14326;50.794;6.060;2023-07-22T02:16:47;18.00;;;7.78;;
26718;SDS011;14326;50.794;6.060;2023-07-22T02:19:38;19.40;;;7.57;;
26718;SDS011;14326;50.794;6.060;2023-07-22T02:22:34;19.20;;;7.10;;
26718;SDS011;14326;50.794;6.060;2023-07-22T02:25:18;18.45;;;7.40;;
26718;SDS011;14326;50.794;6.060;2023-07-22T02:28:20;17.73;;;7.25;;
26718;SDS011;14326;50.794;6.060;2023-07-22T02:31:15;21.08;;;7.95;;
26718;SDS011;14326;50.794;6.060;2023-07-22T02:34:14;17.98;;;7.40;;
26718;SDS011;14326;50.794;6.060;2023-07-22T02:37:22;18.13;;;7.38;;
26718;SDS011;14326;50.794;6.060;2023-07-22T02:40:01;18.92;;;7.85;;
26718;SDS011;14326;50.794;6.060;2023-07-22T02:46:07;18.05;;;7.57;;
26718;SDS011;14326;50.794;6.060;2023-07-22T02:51:45;19.23;;;8.27;;
26718;SDS011;14326;50.794;6.060;2023-07-22T02:57:21;18.75;;;7.65;;
26718;SDS011;14326;50.794;6.060;2023-07-22T03:00:27;20.50;;;8.02;;
26718;SDS011;14326;50.794;6.060;2023-07-22T03:03:18;18.30;;;7.68;;
26718;SDS011;14326;50.794;6.060;2023-07-22T03:06:14;18.88;;;7.65;;
26718;SDS011;14326;50.794;6.060;2023-07-22T03:09:24;18.70;;;7.20;;
26718;SDS011;14326;50.794;6.060;2023-07-22T03:15:15;18.65;;;7.43;;
26718;SDS011;14326;50.794;6.060;2023-07-22T03:17:45;16.50;;;6.75;;
26718;SDS011;14326;50.794;6.060;2023-07-22T03:20:33;18.13;;;7.45;;
26718;SDS011;14326;50.794;6.060;2023-07-22T03:23:24;17.25;;;7.18;;
26718;SDS011;14326;50.794;6.060;2023-07-22T03:26:09;17.58;;;7.30;;
26718;SDS011;14326;50.794;6.060;2023-07-22T03:28:52;19.38;;;7.10;;
26718;SDS011;14326;50.794;6.060;2023-07-22T03:31:49;18.15;;;7.60;;
26718;SDS011;14326;50.794;6.060;2023-07-22T03:34:43;16.80;;;6.95;;
26718;SDS011;14326;50.794;6.060;2023-07-22T03:40:16;18.15;;;7.00;;
26718;SDS011;14326;50.794;6.060;2023-07-22T03:46:06;17.02;;;6.80;;
26718;SDS011;14326;50.794;6.060;2023-07-22T03:48:38;19.23;;;7.05;;
26718;SDS011;14326;50.794;6.060;2023-07-22T03:51:38;17.08;;;6.43;;
26718;SDS011;14326;50.794;6.060;2023-07-22T03:54:27;18.10;;;7.00;;
26718;SDS011;14326;50.794;6.060;2023-07-22T04:00:14;17.65;;;7.20;;
26718;SDS011;14326;50.794;6.060;2023-07-22T04:02:46;17.70;;;7.15;;
26718;SDS011;14326;50.794;6.060;2023-07-22T04:05:34;18.17;;;7.32;;
26718;SDS011;14326;50.794;6.060;2023-07-22T04:08:23;17.55;;;7.07;;
26718;SDS011;14326;50.794;6.060;2023-07-22T04:14:03;17.65;;;6.97;;
26718;SDS011;14326;50.794;6.060;2023-07-22T04:16:41;17.52;;;7.10;;
26718;SDS011;14326;50.794;6.060;2023-07-22T04:19:25;17.50;;;7.18;;
26718;SDS011;14326;50.794;6.060;2023-07-22T04:22:15;18.00;;;7.25;;
26718;SDS011;14326;50.794;6.060;2023-07-22T04:24:46;16.45;;;6.63;;
26718;SDS011;14326;50.794;6.060;2023-07-22T04:27:52;17.77;;;7.28;;
26718;SDS011;14326;50.794;6.060;2023-07-22T04:30:43;17.63;;;7.07;;
26718;SDS011;14326;50.794;6.060;2023-07-22T04:36:37;18.08;;;7.65;;
26718;SDS011;14326;50.794;6.060;2023-07-22T04:42:36;19.98;;;7.22;;
26718;SDS011;14326;50.794;6.060;2023-07-22T04:45:22;17.65;;;7.50;;
26718;SDS011;14326;50.794;6.060;2023-07-22T04:47:49;18.10;;;7.07;;
26718;SDS011;14326;50.794;6.060;2023-07-22T04:50:17;18.75;;;7.32;;
26718;SDS011;14326;50.794;6.060;2023-07-22T04:52:45;18.60;;;7.97;;
26718;SDS011;14326;50.794;6.060;2023-07-22T04:55:17;19.90;;;7.72;;
26718;SDS011;14326;50.794;6.060;2023-07-22T04:58:16;19.00;;;8.20;;
26718;SDS011;14326;50.794;6.060;2023-07-22T05:01:09;19.45;;;8.18;;
26718;SDS011;14326;50.794;6.060;2023-07-22T05:04:08;19.05;;;7.82;;
26718;SDS011;14326;50.794;6.060;2023-07-22T05:06:36;21.05;;;8.25;;
26718;SDS011;14326;50.794;6.060;2023-07-22T05:15:26;20.27;;;7.90;;
26718;SDS011;14326;50.794;6.060;2023-07-22T05:24:22;19.58;;;8.43;;
26718;SDS011;14326;50.794;6.060;2023-07-22T05:27:03;18.98;;;8.30;;
26718;SDS011;14326;50.794;6.060;2023-07-22T05:29:30;20.67;;;9.02;;
26718;SDS011;14326;50.794;6.060;2023-07-22T05:32:20;20.23;;;8.68;;
26718;SDS011;14326;50.794;6.060;2023-07-22T05:34:52;20.48;;;9.15;;
26718;SDS011;14326;50.794;6.060;2023-07-22T05:41:20;20.38;;;8.55;;
26718;SDS011;14326;50.794;6.060;2023-07-22T05:44:18;20.83;;;9.07;;
26718;SDS011;14326;50.794;6.060;2023-07-22T05:46:47;20.33;;;9.18;;
26718;SDS011;14326;50.794;6.060;2023-07-22T05:49:29;19.58;;;9.00;;
26718;SDS011;14326;50.794;6.060;2023-07-22T05:52:07;25.17;;;9.40;;
26718;SDS011;14326;50.794;6.060;2023-07-22T05:54:52;20.42;;;9.38;;
26718;SDS011;14326;50.794;6.060;2023-07-22T06:01:09;21.17;;;9.75;;
26718;SDS011;14326;50.794;6.060;2023-07-22T06:03:52;22.87;;;10.07;;
26718;SDS011;14326;50.794;6.060;2023-07-22T06:06:39;21.10;;;9.45;;
26718;SDS011;14326;50.794;6.060;2023-07-22T06:09:38;21.58;;;9.07;;
26718;SDS011;14326;50.794;6.060;2023-07-22T06:12:21;20.98;;;9.73;;
26718;SDS011;14326;50.794;6.060;2023-07-22T06:15:08;21.35;;;9.55;;
26718;SDS011;14326;50.794;6.060;2023-07-22T06:17:35;21.38;;;9.38;;
26718;SDS011;14326;50.794;6.060;2023-07-22T06:20:22;21.08;;;9.25;;
26718;SDS011;14326;50.794;6.060;2023-07-22T06:23:05;22.77;;;9.35;;
26718;SDS011;14326;50.794;6.060;2023-07-22T06:25:40;22.13;;;9.02;;
26718;SDS011;14326;50.794;6.060;2023-07-22T06:28:07;21.48;;;9.18;;
26718;SDS011;14326;50.794;6.060;2023-07-22T06:30:50;22.75;;;9.25;;
26718;SDS011;14326;50.794;6.060;2023-07-22T06:33:22;19.92;;;8.88;;
26718;SDS011;14326;50.794;6.060;2023-07-22T06:35:52;20.63;;;9.43;;
26718;SDS011;14326;50.794;6.060;2023-07-22T06:38:19;19.85;;;8.90;;
26718;SDS011;14326;50.794;6.060;2023-07-22T06:40:45;23.63;;;9.87;;
26718;SDS011;14326;50.794;6.060;2023-07-22T06:46:32;20.70;;;9.00;;
26718;SDS011;14326;50.794;6.060;2023-07-22T06:49:19;21.05;;;9.00;;
26718;SDS011;14326;50.794;6.060;2023-07-22T06:52:16;20.17;;;8.88;;
26718;SDS011;14326;50.794;6.060;2023-07-22T06:55:18;19.65;;;8.80;;
26718;SDS011;14326;50.794;6.060;2023-07-22T06:58:12;20.63;;;8.50;;
26718;SDS011;14326;50.794;6.060;2023-07-22T07:01:08;20.13;;;8.47;;
26718;SDS011;14326;50.794;6.060;2023-07-22T07:07:04;21.30;;;8.65;;
26718;SDS011;14326;50.794;6.060;2023-07-22T07:12:39;20.50;;;8.37;;
26718;SDS011;14326;50.794;6.060;2023-07-22T07:15:06;19.08;;;8.13;;
26718;SDS011;14326;50.794;6.060;2023-07-22T07:17:33;18.95;;;7.82;;
26718;SDS011;14326;50.794;6.060;2023-07-22T07:20:00;19.55;;;7.68;;
26718;SDS011;14326;50.794;6.060;2023-07-22T07:22:40;19.80;;;7.35;;
26718;SDS011;14326;50.794;6.060;2023-07-22T07:25:10;18.80;;;7.70;;
26718;SDS011;14326;50.794;6.060;2023-07-22T07:27:41;18.73;;;7.63;;
26718;SDS011;14326;50.794;6.060;2023-07-22T07:30:07;17.53;;;7.27;;
26718;SDS011;14326;50.794;6.060;2023-07-22T07:32:38;18.20;;;7.38;;
26718;SDS011;14326;50.794;6.060;2023-07-22T07:35:43;17.77;;;6.90;;
26718;SDS011;14326;50.794;6.060;2023-07-22T07:41:51;19.10;;;6.60;;
26718;SDS011;14326;50.794;6.060;2023-07-22T07:44:36;18.47;;;6.83;;
26718;SDS011;14326;50.794;6.060;2023-07-22T07:47:03;19.15;;;7.05;;
26718;SDS011;14326;50.794;6.060;2023-07-22T07:49:38;18.50;;;6.70;;
26718;SDS011;14326;50.794;6.060;2023-07-22T07:52:25;17.20;;;6.30;;
26718;SDS011;14326;50.794;6.060;2023-07-22T07:55:10;17.20;;;6.63;;
26718;SDS011;14326;50.794;6.060;2023-07-22T07:57:52;17.73;;;6.45;;
26718;SDS011;14326;50.794;6.060;2023-07-22T08:03:45;16.23;;;6.33;;
26718;SDS011;14326;50.794;6.060;2023-07-22T08:06:27;17.48;;;6.30;;
26718;SDS011;14326;50.794;6.060;2023-07-22T08:09:09;16.52;;;6.35;;
26718;SDS011;14326;50.794;6.060;2023-07-22T08:11:54;16.52;;;6.10;;
26718;SDS011;14326;50.794;6.060;2023-07-22T08:14:32;18.43;;;6.43;;
26718;SDS011;14326;50.794;6.060;2023-07-22T08:17:03;19.48;;;6.22;;
26718;SDS011;14326;50.794;6.060;2023-07-22T08:22:47;17.10;;;6.07;;
26718;SDS011;14326;50.794;6.060;2023-07-22T08:28:44;15.73;;;5.95;;
26718;SDS011;14326;50.794;6.060;2023-07-22T08:34:33;15.85;;;6.00;;
26718;SDS011;14326;50.794;6.060;2023-07-22T08:37:48;15.13;;;5.32;;
26718;SDS011;14326;50.794;6.060;2023-07-22T08:40:43;15.55;;;5.60;;
26718;SDS011;14326;50.794;6.060;2023-07-22T08:43:31;16.65;;;5.47;;
26718;SDS011;14326;50.794;6.060;2023-07-22T08:46:41;16.23;;;5.70;;
26718;SDS011;14326;50.794;6.060;2023-07-22T08:49:20;15.90;;;5.82;;
26718;SDS011;14326;50.794;6.060;2023-07-22T08:51:50;16.63;;;5.50;;
26718;SDS011;14326;50.794;6.060;2023-07-22T08:54:26;15.75;;;5.68;;
26718;SDS011;14326;50.794;6.060;2023-07-22T09:00:17;14.67;;;5.30;;
26718;SDS011;14326;50.794;6.060;2023-07-22T09:06:26;14.45;;;5.07;;
26718;SDS011;14326;50.794;6.060;2023-07-22T09:09:32;14.93;;;5.00;;
26718;SDS011;14326;50.794;6.060;2023-07-22T09:12:41;14.83;;;5.00;;
26718;SDS011;14326;50.794;6.060;2023-07-22T09:15:30;14.20;;;5.07;;
26718;SDS011;14326;50.794;6.060;2023-07-22T09:18:05;14.13;;;4.95;;
26718;SDS011;14326;50.794;6.060;2023-07-22T09:20:53;13.50;;;4.45;;
26718;SDS011;14326;50.794;6.060;2023-07-22T09:24:00;12.98;;;4.95;;
26718;SDS011;14326;50.794;6.060;2023-07-22T09:26:58;13.23;;;4.47;;
26718;SDS011;14326;50.794;6.060;2023-07-22T09:30:01;12.70;;;4.45;;
26718;SDS011;14326;50.794;6.060;2023-07-22T09:35:59;13.00;;;4.38;;
26718;SDS011;14326;50.794;6.060;2023-07-22T09:39:19;15.93;;;4.82;;
26718;SDS011;14326;50.794;6.060;2023-07-22T09:41:56;13.63;;;4.67;;
26718;SDS011;14326;50.794;6.060;2023-07-22T09:44:34;11.75;;;4.03;;
26718;SDS011;14326;50.794;6.060;2023-07-22T09:50:02;11.60;;;3.73;;
26718;SDS011;14326;50.794;6.060;2023-07-22T09:52:47;12.20;;;3.75;;
26718;SDS011;14326;50.794;6.060;2023-07-22T09:55:43;12.45;;;4.15;;
26718;SDS011;14326;50.794;6.060;2023-07-22T09:58:24;12.93;;;3.95;;
26718;SDS011;14326;50.794;6.060;2023-07-22T10:01:15;12.30;;;4.30;;
26718;SDS011;14326;50.794;6.060;2023-07-22T10:07:20;12.43;;;3.90;;
26718;SDS011;14326;50.794;6.060;2023-07-22T10:10:09;14.35;;;4.20;;
26718;SDS011;14326;50.794;6.060;2023-07-22T10:12:56;11.70;;;4.07;;
26718;SDS011;14326;50.794;6.060;2023-07-22T10:15:42;11.80;;;4.32;;
26718;SDS011;14326;50.794;6.060;2023-07-22T10:18:22;13.82;;;4.30;;
26718;SDS011;14326;50.794;6.060;2023-07-22T10:24:11;12.68;;;4.10;;
26718;SDS011;14326;50.794;6.060;2023-07-22T10:26:53;13.25;;;4.30;;
26718;SDS011;14326;50.794;6.060;2023-07-22T10:29:27;12.95;;;4.32;;
26718;SDS011;14326;50.794;6.060;2023-07-22T10:32:00;12.07;;;3.90;;
26718;SDS011;14326;50.794;6.060;2023-07-22T10:34:33;12.68;;;4.28;;
26718;SDS011;14326;50.794;6.060;2023-07-22T10:36:59;11.38;;;4.10;;
26718;SDS011;14326;50.794;6.060;2023-07-22T10:39:41;13.75;;;4.30;;
26718;SDS011;14326;50.794;6.060;2023-07-22T10:42:25;11.63;;;3.95;;
26718;SDS011;14326;50.794;6.060;2023-07-22T10:45:01;12.35;;;4.25;;
26718;SDS011;14326;50.794;6.060;2023-07-22T10:47:51;12.20;;;4.00;;
26718;SDS011;14326;50.794;6.060;2023-07-22T10:50:42;10.43;;;3.85;;
26718;SDS011;14326;50.794;6.060;2023-07-22T10:53:12;11.57;;;3.67;;
26718;SDS011;14326;50.794;6.060;2023-07-22T10:56:11;8.63;;;3.47;;
26718;SDS011;14326;50.794;6.060;2023-07-22T10:59:14;7.87;;;3.00;;
26718;SDS011;14326;50.794;6.060;2023-07-22T11:02:22;8.20;;;2.80;;
26718;SDS011;14326;50.794;6.060;2023-07-22T11:05:11;7.55;;;3.03;;
26718;SDS011;14326;50.794;6.060;2023-07-22T11:08:03;8.32;;;3.00;;
26718;SDS011;14326;50.794;6.060;2023-07-22T11:10:57;9.15;;;2.78;;
26718;SDS011;14326;50.794;6.060;2023-07-22T11:13:52;11.35;;;2.90;;
26718;SDS011;14326;50.794;6.060;2023-07-22T11:16:39;8.13;;;3.10;;
26718;SDS011;14326;50.794;6.060;2023-07-22T11:19:42;8.77;;;3.30;;
26718;SDS011;14326;50.794;6.060;2023-07-22T11:22:30;6.75;;;2.95;;
26718;SDS011;14326;50.794;6.060;2023-07-22T11:25:44;7.38;;;2.90;;
26718;SDS011;14326;50.794;6.060;2023-07-22T11:28:23;10.48;;;3.15;;
26718;SDS011;14326;50.794;6.060;2023-07-22T11:30:50;10.32;;;3.53;;
26718;SDS011;14326;50.794;6.060;2023-07-22T11:33:18;9.35;;;3.33;;
26718;SDS011;14326;50.794;6.060;2023-07-22T11:39:02;9.77;;;3.22;;
26718;SDS011;14326;50.794;6.060;2023-07-22T11:41:47;9.15;;;3.08;;
26718;SDS011;14326;50.794;6.060;2023-07-22T11:44:16;9.23;;;3.28;;
26718;SDS011;14326;50.794;6.060;2023-07-22T11:46:47;8.90;;;3.45;;
26718;SDS011;14326;50.794;6.060;2023-07-22T11:52:38;10.93;;;3.65;;
26718;SDS011;14326;50.794;6.060;2023-07-22T11:55:38;10.55;;;3.80;;
26718;SDS011;14326;50.794;6.060;2023-07-22T11:58:25;11.23;;;3.60;;
26718;SDS011;14326;50.794;6.060;2023-07-22T12:07:21;11.80;;;3.72;;
26718;SDS011;14326;50.794;6.060;2023-07-22T12:13:36;11.48;;;4.07;;
26718;SDS011;14326;50.794;6.060;2023-07-22T12:16:30;12.13;;;3.85;;
26718;SDS011;14326;50.794;6.060;2023-07-22T12:18:58;10.35;;;3.60;;
26718;SDS011;14326;50.794;6.060;2023-07-22T12:21:56;10.53;;;3.63;;
26718;SDS011;14326;50.794;6.060;2023-07-22T12:24:36;10.10;;;3.65;;
26718;SDS011;14326;50.794;6.060;2023-07-22T12:30:32;11.13;;;3.90;;
26718;SDS011;14326;50.794;6.060;2023-07-22T12:33:13;12.88;;;4.18;;
26718;SDS011;14326;50.794;6.060;2023-07-22T12:36:11;11.05;;;3.70;;
26718;SDS011;14326;50.794;6.060;2023-07-22T12:38:49;8.98;;;3.38;;
26718;SDS011;14326;50.794;6.060;2023-07-22T12:41:36;10.63;;;3.80;;
26718;SDS011;14326;50.794;6.060;2023-07-22T12:44:31;12.15;;;3.70;;
26718;SDS011;14326;50.794;6.060;2023-07-22T12:47:24;10.60;;;3.78;;
26718;SDS011;14326;50.794;6.060;2023-07-22T12:53:01;13.30;;;4.70;;
26718;SDS011;14326;50.794;6.060;2023-07-22T12:55:42;13.27;;;6.68;;
26718;SDS011;14326;50.794;6.060;2023-07-22T12:58:24;8.43;;;3.15;;
26718;SDS011;14326;50.794;6.060;2023-07-22T13:00:52;9.48;;;3.35;;
26718;SDS011;14326;50.794;6.060;2023-07-22T13:03:25;10.82;;;3.20;;
26718;SDS011;14326;50.794;6.060;2023-07-22T13:06:17;10.57;;;3.50;;
26718;SDS011;14326;50.794;6.060;2023-07-22T13:09:05;10.32;;;3.40;;
26718;SDS011;14326;50.794;6.060;2023-07-22T13:11:45;8.73;;;3.40;;
26718;SDS011;14326;50.794;6.060;2023-07-22T13:14:31;10.68;;;3.63;;
26718;SDS011;14326;50.794;6.060;2023-07-22T13:17:11;9.13;;;3.30;;
26718;SDS011;14326;50.794;6.060;2023-07-22T13:20:02;10.20;;;3.38;;
26718;SDS011;14326;50.794;6.060;2023-07-22T13:22:48;10.07;;;3.50;;
26718;SDS011;14326;50.794;6.060;2023-07-22T13:25:25;9.55;;;3.30;;
26718;SDS011;14326;50.794;6.060;2023-07-22T13:27:57;10.60;;;3.38;;
26718;SDS011;14326;50.794;6.060;2023-07-22T13:30:29;9.90;;;3.40;;
26718;SDS011;14326;50.794;6.060;2023-07-22T13:33:10;8.38;;;2.90;;
26718;SDS011;14326;50.794;6.060;2023-07-22T13:35:45;10.00;;;3.15;;
26718;SDS011;14326;50.794;6.060;2023-07-22T13:38:24;9.67;;;2.93;;
26718;SDS011;14326;50.794;6.060;2023-07-22T13:40:52;7.22;;;3.00;;
26718;SDS011;14326;50.794;6.060;2023-07-22T13:43:19;9.90;;;2.85;;
26718;SDS011;14326;50.794;6.060;2023-07-22T13:45:46;9.07;;;3.00;;
26718;SDS011;14326;50.794;6.060;2023-07-22T13:51:07;9.35;;;2.70;;
26718;SDS011;14326;50.794;6.060;2023-07-22T13:53:34;9.27;;;2.70;;
26718;SDS011;14326;50.794;6.060;2023-07-22T13:56:00;7.43;;;2.60;;
26718;SDS011;14326;50.794;6.060;2023-07-22T13:58:28;8.27;;;2.80;;
26718;SDS011;14326;50.794;6.060;2023-07-22T14:00:56;7.22;;;2.38;;
26718;SDS011;14326;50.794;6.060;2023-07-22T14:03:30;7.75;;;2.58;;
26718;SDS011;14326;50.794;6.060;2023-07-22T14:05:57;6.67;;;2.50;;
26718;SDS011;14326;50.794;6.060;2023-07-22T14:11:41;5.60;;;2.22;;
26718;SDS011;14326;50.794;6.060;2023-07-22T14:14:08;8.60;;;2.13;;
26718;SDS011;14326;50.794;6.060;2023-07-22T14:16:40;8.05;;;2.45;;
26718;SDS011;14326;50.794;6.060;2023-07-22T14:19:15;6.75;;;2.40;;
26718;SDS011;14326;50.794;6.060;2023-07-22T14:21:50;8.23;;;2.40;;
26718;SDS011;14326;50.794;6.060;2023-07-22T14:24:39;6.68;;;2.30;;
26718;SDS011;14326;50.794;6.060;2023-07-22T14:27:28;8.82;;;2.50;;
26718;SDS011;14326;50.794;6.060;2023-07-22T14:30:36;6.88;;;2.20;;
26718;SDS011;14326;50.794;6.060;2023-07-22T14:33:16;6.88;;;2.50;;
26718;SDS011;14326;50.794;6.060;2023-07-22T14:36:13;7.15;;;2.42;;
26718;SDS011;14326;50.794;6.060;2023-07-22T14:38:51;7.45;;;2.67;;
26718;SDS011;14326;50.794;6.060;2023-07-22T14:41:20;9.55;;;2.90;;
26718;SDS011;14326;50.794;6.060;2023-07-22T14:44:05;9.10;;;2.80;;
26718;SDS011;14326;50.794;6.060;2023-07-22T14:46:32;9.25;;;3.22;;
26718;SDS011;14326;50.794;6.060;2023-07-22T14:49:03;9.05;;;3.00;;
26718;SDS011;14326;50.794;6.060;2023-07-22T14:51:46;8.82;;;3.10;;
26718;SDS011;14326;50.794;6.060;2023-07-22T14:54:30;11.70;;;3.45;;
26718;SDS011;14326;50.794;6.060;2023-07-22T14:57:04;11.48;;;3.45;;
26718;SDS011;14326;50.794;6.060;2023-07-22T15:00:06;11.57;;;3.63;;
26718;SDS011;14326;50.794;6.060;2023-07-22T15:02:47;10.40;;;3.15;;
26718;SDS011;14326;50.794;6.060;2023-07-22T15:05:19;9.45;;;2.90;;
26718;SDS011;14326;50.794;6.060;2023-07-22T15:08:06;8.70;;;3.07;;
26718;SDS011;14326;50.794;6.060;2023-07-22T15:10:46;11.32;;;3.42;;
26718;SDS011;14326;50.794;6.060;2023-07-22T15:13:13;9.00;;;3.03;;
26718;SDS011;14326;50.794;6.060;2023-07-22T15:15:41;9.40;;;3.25;;
26718;SDS011;14326;50.794;6.060;2023-07-22T15:18:26;11.45;;;3.05;;
26718;SDS011;14326;50.794;6.060;2023-07-22T15:21:11;10.50;;;3.50;;
26718;SDS011;14326;50.794;6.060;2023-07-22T15:23:56;10.27;;;3.17;;
26718;SDS011;14326;50.794;6.060;2023-07-22T15:26:41;9.50;;;3.00;;
26718;SDS011;14326;50.794;6.060;2023-07-22T15:29:21;7.55;;;2.65;;
26718;SDS011;14326;50.794;6.060;2023-07-22T15:31:52;9.50;;;2.80;;
26718;SDS011;14326;50.794;6.060;2023-07-22T15:37:52;8.55;;;2.83;;
26718;SDS011;14326;50.794;6.060;2023-07-22T15:40:43;11.20;;;2.85;;
26718;SDS011;14326;50.794;6.060;2023-07-22T15:43:26;8.02;;;2.83;;
26718;SDS011;14326;50.794;6.060;2023-07-22T15:45:53;9.00;;;2.83;;
26718;SDS011;14326;50.794;6.060;2023-07-22T15:48:21;10.38;;;2.80;;
26718;SDS011;14326;50.794;6.060;2023-07-22T15:50:49;7.88;;;3.20;;
26718;SDS011;14326;50.794;6.060;2023-07-22T15:53:26;10.75;;;3.10;;
26718;SDS011;14326;50.794;6.060;2023-07-22T15:56:15;9.57;;;3.00;;
26718;SDS011;14326;50.794;6.060;2023-07-22T15:59:06;9.80;;;3.20;;
26718;SDS011;14326;50.794;6.060;2023-07-22T16:01:44;14.43;;;6.70;;
26718;SDS011;14326;50.794;6.060;2023-07-22T16:04:11;12.63;;;3.92;;
26718;SDS011;14326;50.794;6.060;2023-07-22T16:06:54;10.40;;;3.80;;
26718;SDS011;14326;50.794;6.060;2023-07-22T16:09:41;10.90;;;3.47;;
26718;SDS011;14326;50.794;6.060;2023-07-22T16:12:16;10.95;;;3.63;;
26718;SDS011;14326;50.794;6.060;2023-07-22T16:18:09;10.80;;;3.40;;
26718;SDS011;14326;50.794;6.060;2023-07-22T16:20:44;11.45;;;3.55;;
26718;SDS011;14326;50.794;6.060;2023-07-22T16:23:11;16.70;;;4.15;;
26718;SDS011;14326;50.794;6.060;2023-07-22T16:26:03;10.02;;;3.50;;
26718;SDS011;14326;50.794;6.060;2023-07-22T16:29:01;11.20;;;3.60;;
26718;SDS011;14326;50.794;6.060;2023-07-22T16:31:30;12.73;;;3.77;;
26718;SDS011;14326;50.794;6.060;2023-07-22T16:34:02;15.52;;;4.90;;
26718;SDS011;14326;50.794;6.060;2023-07-22T16:36:49;14.82;;;5.55;;
26718;SDS011;14326;50.794;6.060;2023-07-22T16:39:27;13.65;;;3.70;;
26718;SDS011;14326;50.794;6.060;2023-07-22T16:42:22;14.82;;;4.22;;
26718;SDS011;14326;50.794;6.060;2023-07-22T16:45:10;9.60;;;3.63;;
26718;SDS011;14326;50.794;6.060;2023-07-22T16:47:45;14.83;;;4.63;;
26718;SDS011;14326;50.794;6.060;2023-07-22T16:50:27;12.52;;;3.80;;
26718;SDS011;14326;50.794;6.060;2023-07-22T16:53:00;19.33;;;6.93;;
26718;SDS011;14326;50.794;6.060;2023-07-22T16:56:01;10.35;;;3.55;;
26718;SDS011;14326;50.794;6.060;2023-07-22T16:58:58;12.82;;;3.80;;
26718;SDS011;14326;50.794;6.060;2023-07-22T17:01:38;16.63;;;6.05;;
26718;SDS011;14326;50.794;6.060;2023-07-22T17:04:23;24.90;;;9.43;;
26718;SDS011;14326;50.794;6.060;2023-07-22T17:07:15;13.60;;;3.90;;
26718;SDS011;14326;50.794;6.060;2023-07-22T17:09:56;13.25;;;4.55;;
26718;SDS011;14326;50.794;6.060;2023-07-22T17:12:23;15.52;;;5.32;;
26718;SDS011;14326;50.794;6.060;2023-07-22T17:14:49;15.45;;;6.03;;
26718;SDS011;14326;50.794;6.060;2023-07-22T17:17:31;11.27;;;3.80;;
26718;SDS011;14326;50.794;6.060;2023-07-22T17:23:19;16.10;;;6.22;;
26718;SDS011;14326;50.794;6.060;2023-07-22T17:25:45;11.35;;;4.00;;
26718;SDS011;14326;50.794;6.060;2023-07-22T17:28:20;11.32;;;3.70;;
26718;SDS011;14326;50.794;6.060;2023-07-22T17:31:04;9.52;;;3.90;;
26718;SDS011;14326;50.794;6.060;2023-07-22T17:33:55;11.18;;;3.70;;
26718;SDS011;14326;50.794;6.060;2023-07-22T17:36:34;15.67;;;4.03;;
26718;SDS011;14326;50.794;6.060;2023-07-22T17:42:20;12.60;;;3.67;;
26718;SDS011;14326;50.794;6.060;2023-07-22T17:45:08;12.23;;;3.28;;
26718;SDS011;14326;50.794;6.060;2023-07-22T17:47:46;10.65;;;3.65;;
26718;SDS011;14326;50.794;6.060;2023-07-22T17:50:32;11.32;;;3.60;;
26718;SDS011;14326;50.794;6.060;2023-07-22T17:53:30;13.13;;;3.78;;
26718;SDS011;14326;50.794;6.060;2023-07-22T17:56:26;13.07;;;3.40;;
26718;SDS011;14326;50.794;6.060;2023-07-22T17:59:23;11.80;;;3.13;;
26718;SDS011;14326;50.794;6.060;2023-07-22T18:02:18;12.85;;;3.80;;
26718;SDS011;14326;50.794;6.060;2023-07-22T18:04:58;11.98;;;3.20;;
26718;SDS011;14326;50.794;6.060;2023-07-22T18:07:52;12.18;;;3.47;;
26718;SDS011;14326;50.794;6.060;2023-07-22T18:10:50;10.23;;;3.20;;
26718;SDS011;14326;50.794;6.060;2023-07-22T18:16:31;12.88;;;3.53;;
26718;SDS011;14326;50.794;6.060;2023-07-22T18:22:12;13.35;;;3.20;;
26718;SDS011;14326;50.794;6.060;2023-07-22T18:24:55;12.77;;;3.38;;
26718;SDS011;14326;50.794;6.060;2023-07-22T18:27:21;12.95;;;3.42;;
26718;SDS011;14326;50.794;6.060;2023-07-22T18:36:03;14.07;;;3.50;;
26718;SDS011;14326;50.794;6.060;2023-07-22T18:38:53;12.65;;;3.30;;
26718;SDS011;14326;50.794;6.060;2023-07-22T18:41:34;11.50;;;3.13;;
26718;SDS011;14326;50.794;6.060;2023-07-22T18:44:16;12.70;;;3.20;;
26718;SDS011;14326;50.794;6.060;2023-07-22T18:46:52;13.10;;;3.80;;
26718;SDS011;14326;50.794;6.060;2023-07-22T18:52:44;9.73;;;3.13;;
26718;SDS011;14326;50.794;6.060;2023-07-22T18:55:24;12.90;;;3.58;;
26718;SDS011;14326;50.794;6.060;2023-07-22T18:58:13;12.90;;;3.30;;
26718;SDS011;14326;50.794;6.060;2023-07-22T19:00:58;13.00;;;3.50;;
26718;SDS011;14326;50.794;6.060;2023-07-22T19:09:33;16.85;;;3.88;;
26718;SDS011;14326;50.794;6.060;2023-07-22T19:12:02;17.85;;;3.65;;